Time;durP1;ratioP1;P1;durP2;ratioP2;P2;SDS_P1;SDS_P2;PMS_P1;PMS_P2;Temp;Humidity;BMP_temperature;BMP_pressure;BME280_temperature;BME280_humidity;BME280_pressure;Samples;Min_cycle;Max_cycle;Signal;HPM_P1;HPM_P2
2021/12/24 00:01:12;;;;;;;57.03;25.20;;;;;;;-2.42;91.92;98247.59;4489105;31;20165;-74
2021/12/24 00:03:40;;;;;;;59.65;24.60;;;;;;;-2.40;91.64;98263.75;4484638;31;20404;-74
2021/12/24 00:06:08;;;;;;;55.30;24.83;;;;;;;-2.27;91.45;98247.78;4484801;31;20151;-74
2021/12/24 00:08:36;;;;;;;53.83;25.30;;;;;;;-2.25;90.78;98251.97;4484534;31;20446;-74
2021/12/24 00:11:04;;;;;;;58.95;24.52;;;;;;;-2.18;90.05;98255.06;4484536;31;20156;-74
2021/12/24 00:13:39;;;;;;;52.47;23.60;;;;;;;-2.09;89.97;98259.81;4484453;31;20088;-74
2021/12/24 00:37:30;;;;;;;63.08;25.30;;;;;;;-2.25;91.75;98218.59;4466039;32;20085;-74
2021/12/24 00:40:10;;;;;;;57.72;26.00;;;;;;;-2.16;90.72;98181.44;4465939;32;20181;-74
2021/12/24 00:42:40;;;;;;;61.47;25.98;;;;;;;-2.09;90.36;98177.69;4466740;32;20096;-74
2021/12/24 00:45:07;;;;;;;56.50;23.67;;;;;;;-2.10;90.48;98170.88;4468129;32;20155;-74
2021/12/24 00:47:34;;;;;;;57.25;24.48;;;;;;;-2.10;90.75;98147.78;4468091;32;20724;-74
2021/12/24 00:50:08;;;;;;;54.42;24.87;;;;;;;-2.06;90.73;98154.44;4468062;32;20148;-74
2021/12/24 00:52:49;;;;;;;55.22;23.75;;;;;;;-2.13;90.59;98140.22;4468232;32;20371;-74
2021/12/24 00:55:22;;;;;;;50.75;22.77;;;;;;;-2.14;91.03;98141.94;4468182;32;20092;-74
2021/12/24 00:57:52;;;;;;;65.20;25.67;;;;;;;-2.11;90.68;98127.31;4468051;32;20116;-74
2021/12/24 01:00:40;;;;;;;60.70;25.77;;;;;;;-2.06;91.03;98130.50;4474466;31;20142;-74
2021/12/24 01:03:11;;;;;;;51.85;24.35;;;;;;;-1.93;90.70;98120.47;4501979;31;20080;-74
2021/12/24 01:05:40;;;;;;;59.45;24.67;;;;;;;-1.85;90.25;98093.50;4500708;31;20524;-74
2021/12/24 01:08:09;;;;;;;61.10;25.23;;;;;;;-1.85;90.58;98119.16;4501856;31;20079;-74
2021/12/24 01:11:02;;;;;;;66.07;27.85;;;;;;;-2.00;91.64;98100.25;4501660;31;20096;-74
2021/12/24 01:13:30;;;;;;;62.92;26.00;;;;;;;-2.15;92.93;98090.69;4501858;31;20168;-74
2021/12/24 01:16:14;;;;;;;65.12;26.02;;;;;;;-2.07;93.28;98080.09;4502006;31;20586;-74
2021/12/24 01:23:56;;;;;;;57.65;23.90;;;;;;;-2.32;93.85;98041.06;4501828;31;20152;-74
2021/12/24 01:26:36;;;;;;;62.08;25.77;;;;;;;-2.44;94.26;98043.38;4501696;31;20464;-74
2021/12/24 01:40:08;;;;;;;54.95;23.55;;;;;;;-2.41;95.02;98086.84;4501594;31;20592;-74
2021/12/24 01:42:45;;;;;;;59.45;25.08;;;;;;;-2.42;95.08;98057.78;4501596;31;20118;-74
2021/12/24 01:45:16;;;;;;;63.35;26.87;;;;;;;-2.51;95.28;98063.38;4501822;31;20497;-74
2021/12/24 01:47:44;;;;;;;59.53;25.95;;;;;;;-2.48;94.53;98081.19;4501815;31;20101;-74
2021/12/24 01:50:11;;;;;;;65.95;26.58;;;;;;;-2.46;94.63;98071.66;4501610;31;20154;-74
2021/12/24 01:52:39;;;;;;;58.25;25.23;;;;;;;-2.49;94.23;98061.56;4501924;31;20167;-74
2021/12/24 01:55:08;;;;;;;62.80;25.25;;;;;;;-2.40;95.15;98040.59;4497066;31;75351;-73
2021/12/24 01:57:36;;;;;;;70.80;26.62;;;;;;;-2.46;94.40;98056.28;4501584;31;20084;-74
2021/12/24 02:00:07;;;;;;;68.43;26.98;;;;;;;-2.35;94.30;98050.63;4500053;31;20084;-74
2021/12/24 02:02:39;;;;;;;61.10;26.98;;;;;;;-2.27;93.85;98065.63;4501184;31;20084;-74
2021/12/24 02:05:07;;;;;;;60.08;25.12;;;;;;;-2.28;93.96;98049.44;4501451;31;20145;-74
2021/12/24 02:07:34;;;;;;;66.62;25.77;;;;;;;-2.25;94.23;98022.81;4500295;31;20092;-74
2021/12/24 02:10:07;;;;;;;68.15;27.40;;;;;;;-2.14;93.77;98038.50;4501525;31;20641;-74
2021/12/24 02:12:36;;;;;;;60.85;26.60;;;;;;;-2.28;93.86;98023.78;4501561;31;20084;-74
2021/12/24 02:15:09;;;;;;;59.80;25.25;;;;;;;-2.29;94.25;98016.16;4501440;31;20155;-74
2021/12/24 02:17:55;;;;;;;64.55;24.25;;;;;;;-2.27;94.49;98016.91;4501544;31;20114;-74
2021/12/24 02:28:45;;;;;;;55.70;24.75;;;;;;;-1.97;93.16;98005.13;4501237;31;20163;-74
2021/12/24 02:31:18;;;;;;;53.30;23.25;;;;;;;-1.99;93.41;98009.47;4501267;31;20079;-74
2021/12/24 02:33:46;;;;;;;55.83;22.83;;;;;;;-1.88;93.46;97996.09;4501373;31;20088;-74
2021/12/24 02:36:13;;;;;;;64.75;25.33;;;;;;;-1.85;93.09;98000.25;4501137;31;20103;-74
2021/12/24 02:38:41;;;;;;;60.53;25.02;;;;;;;-1.92;92.42;97974.09;4501133;31;20489;-74
2021/12/24 02:41:10;;;;;;;54.88;24.33;;;;;;;-1.99;93.43;97970.16;4501463;31;20152;-74
2021/12/24 02:43:38;;;;;;;62.92;26.27;;;;;;;-1.98;93.62;97931.59;4501009;31;20153;-74
2021/12/24 02:46:10;;;;;;;62.83;24.40;;;;;;;-1.97;93.55;97942.69;4501165;31;20787;-74
2021/12/24 02:49:17;;;;;;;65.07;24.42;;;;;;;-1.93;93.77;97928.78;4501084;31;20072;-74
2021/12/24 02:54:22;;;;;;;55.45;24.58;;;;;;;-2.12;93.93;97904.97;4500982;31;20412;-74
2021/12/24 02:56:52;;;;;;;55.45;25.70;;;;;;;-2.19;94.72;97909.59;4501066;31;20502;-74
2021/12/24 02:59:26;;;;;;;62.33;25.60;;;;;;;-2.29;95.14;97909.22;4501114;31;20106;-74
2021/12/24 03:01:55;;;;;;;60.57;25.60;;;;;;;-2.22;95.00;97920.03;4485197;32;20189;-74
2021/12/24 03:04:22;;;;;;;59.00;23.73;;;;;;;-2.21;94.67;97931.94;4485388;31;20434;-74
2021/12/24 03:06:51;;;;;;;55.17;23.98;;;;;;;-2.33;95.04;97931.66;4484988;32;20088;-74
2021/12/24 03:09:20;;;;;;;57.13;26.20;;;;;;;-2.26;95.19;97952.69;4485185;32;20453;-74
2021/12/24 03:11:50;;;;;;;59.25;25.20;;;;;;;-2.16;94.50;97958.19;4484992;31;20088;-74
2021/12/24 03:14:19;;;;;;;59.00;25.25;;;;;;;-2.04;94.41;97952.44;4483978;32;20170;-74
2021/12/24 03:16:55;;;;;;;55.10;23.45;;;;;;;-2.06;93.81;97955.97;4485254;31;20084;-74
2021/12/24 03:19:26;;;;;;;56.08;24.70;;;;;;;-2.07;94.29;97965.44;4485396;31;20092;-74
2021/12/24 03:22:01;;;;;;;59.35;24.15;;;;;;;-2.15;95.86;97972.66;4485371;31;20136;-74
2021/12/24 03:26:56;;;;;;;54.65;24.77;;;;;;;-2.05;96.76;97968.75;4485009;32;20100;-74
2021/12/24 03:29:23;;;;;;;59.47;23.55;;;;;;;-2.11;97.30;97956.22;4483977;32;20212;-74
2021/12/24 03:31:51;;;;;;;60.78;24.92;;;;;;;-2.24;98.38;97945.75;4485003;31;20139;-74
2021/12/24 03:34:21;;;;;;;55.92;24.77;;;;;;;-2.22;98.99;97950.81;4484998;32;20092;-74
2021/12/24 03:36:49;;;;;;;56.05;24.98;;;;;;;-2.17;99.14;97947.09;4485203;31;20176;-74
2021/12/24 03:39:18;;;;;;;56.05;24.87;;;;;;;-2.04;98.88;97955.00;4485200;31;20100;-74
2021/12/24 03:41:45;;;;;;;59.55;24.70;;;;;;;-1.85;97.68;97948.91;4484984;31;20092;-74
2021/12/24 03:44:15;;;;;;;62.22;26.08;;;;;;;-1.87;98.03;97943.87;4485067;31;20112;-74
2021/12/24 03:47:00;;;;;;;57.88;24.02;;;;;;;-1.84;97.83;97930.88;4484795;31;20097;-74
2021/12/24 03:50:12;;;;;;;53.33;25.00;;;;;;;-1.70;97.85;97930.13;4485138;31;20107;-74
2021/12/24 03:54:59;;;;;;;61.33;26.15;;;;;;;-1.76;98.02;97927.91;4484672;31;20088;-74
2021/12/24 03:57:35;;;;;;;54.97;24.45;;;;;;;-1.72;98.21;97921.69;4485095;31;20144;-74
2021/12/24 04:00:18;;;;;;;55.38;23.38;;;;;;;-1.68;98.02;97924.91;4490265;31;20623;-74
2021/12/24 04:02:47;;;;;;;61.30;25.73;;;;;;;-1.55;97.87;97917.41;4500811;31;20192;-74
2021/12/24 04:05:16;;;;;;;54.67;24.98;;;;;;;-1.60;97.67;97922.78;4500662;31;20095;-74
2021/12/24 04:07:51;;;;;;;56.00;24.65;;;;;;;-1.62;98.77;97916.88;4500610;31;20100;-74
2021/12/24 04:10:39;;;;;;;56.92;25.40;;;;;;;-1.63;99.26;97902.41;4500218;31;20080;-74
2021/12/24 04:13:11;;;;;;;63.55;25.37;;;;;;;-1.68;99.78;97894.94;4500626;31;20501;-74
2021/12/24 04:15:39;;;;;;;61.45;25.85;;;;;;;-1.62;99.11;97886.91;4500192;31;20099;-74
2021/12/24 04:18:13;;;;;;;48.95;24.87;;;;;;;-1.69;98.88;97882.19;4499556;31;20238;-74
2021/12/24 04:26:13;;;;;;;56.95;23.33;;;;;;;-2.00;99.73;97866.69;4500190;31;20441;-74
2021/12/24 04:28:41;;;;;;;54.25;23.87;;;;;;;-2.01;99.49;97859.87;4500238;31;20533;-74
2021/12/24 04:31:09;;;;;;;53.10;24.37;;;;;;;-1.86;98.97;97854.84;4500288;31;20100;-74
2021/12/24 04:33:39;;;;;;;57.17;23.98;;;;;;;-1.85;98.17;97853.94;4500181;31;20590;-74
2021/12/24 05:03:45;;;;;;;52.60;23.67;;;;;;;-2.04;99.51;97836.13;4450457;32;20103;-74
2021/12/24 05:06:27;;;;;;;50.88;23.08;;;;;;;-2.14;99.55;97831.47;4450276;32;20185;-74
2021/12/24 05:08:58;;;;;;;59.00;22.30;;;;;;;-2.07;99.40;97826.84;4450600;32;20104;-74
2021/12/24 05:11:26;;;;;;;53.67;22.40;;;;;;;-2.04;99.23;97829.25;4450055;32;20105;-74
2021/12/24 05:13:54;;;;;;;49.65;22.23;;;;;;;-2.02;99.08;97824.84;4450069;32;20576;-74
2021/12/24 05:16:38;;;;;;;55.90;23.95;;;;;;;-1.86;98.45;97827.44;4450250;32;20116;-74
2021/12/24 05:21:54;;;;;;;50.25;21.62;;;;;;;-2.02;99.13;97831.75;4450348;32;20307;-74
2021/12/24 05:24:26;;;;;;;53.22;22.35;;;;;;;-2.04;99.92;97831.81;4450153;32;20119;-74
2021/12/24 05:26:59;;;;;;;49.40;21.33;;;;;;;-1.90;99.88;97832.84;4450211;32;20131;-74
2021/12/24 05:29:28;;;;;;;43.72;20.27;;;;;;;-1.83;99.18;97834.97;4450838;32;20108;-74
2021/12/24 05:31:55;;;;;;;54.10;22.15;;;;;;;-1.83;99.50;97836.72;4439004;32;20105;-74
2021/12/24 05:34:23;;;;;;;53.13;22.45;;;;;;;-1.87;99.91;97842.94;4452578;32;20097;-74
2021/12/24 05:36:53;;;;;;;55.40;23.50;;;;;;;-1.92;100.00;97835.47;4461019;32;20088;-74
2021/12/24 05:39:22;;;;;;;55.10;22.50;;;;;;;-2.00;100.00;97843.59;4486123;31;20088;-74
2021/12/24 05:41:51;;;;;;;60.50;22.50;;;;;;;-2.05;100.00;97832.72;4486241;31;20084;-74
2021/12/24 05:44:18;;;;;;;53.85;23.58;;;;;;;-2.02;100.00;97830.00;4486008;31;20171;-74
2021/12/24 05:46:46;;;;;;;49.05;21.62;;;;;;;-2.04;100.00;97831.81;4486154;31;20092;-74
2021/12/24 05:49:14;;;;;;;53.85;21.45;;;;;;;-2.11;100.00;97834.81;4485972;31;20137;-74
2021/12/24 05:51:47;;;;;;;54.50;23.53;;;;;;;-2.06;100.00;97853.34;4486143;31;20080;-74
2021/12/24 05:54:19;;;;;;;49.25;22.77;;;;;;;-1.93;100.00;97853.53;4485869;31;20088;-74
2021/12/24 05:56:46;;;;;;;56.15;22.25;;;;;;;-1.98;100.00;97852.03;4485884;31;20457;-74
2021/12/24 05:59:14;;;;;;;53.65;21.48;;;;;;;-1.89;100.00;97860.13;4486191;31;20688;-74
2021/12/24 06:01:42;;;;;;;50.65;21.83;;;;;;;-1.92;100.00;97860.31;4501104;31;20160;-74
2021/12/24 06:04:09;;;;;;;54.45;23.48;;;;;;;-1.92;100.00;97862.88;4501447;31;20512;-74
2021/12/24 06:06:37;;;;;;;52.33;21.02;;;;;;;-1.71;100.00;97879.72;4501435;31;20092;-74
2021/12/24 06:09:04;;;;;;;45.92;19.60;;;;;;;-1.52;100.00;97864.12;4501506;31;20100;-74
2021/12/24 06:11:32;;;;;;;47.53;20.33;;;;;;;-1.44;100.00;97861.97;4501498;31;20159;-74
2021/12/24 06:14:07;;;;;;;56.10;22.37;;;;;;;-1.39;100.00;97864.28;4501310;31;20114;-74
2021/12/24 06:16:35;;;;;;;46.60;20.88;;;;;;;-1.26;100.00;97859.28;4501656;31;20080;-74
2021/12/24 06:19:04;;;;;;;48.72;21.48;;;;;;;-1.16;100.00;97849.34;4501239;31;20135;-74
2021/12/24 06:21:31;;;;;;;47.22;21.10;;;;;;;-1.17;100.00;97853.63;4501624;31;20595;-74
2021/12/24 06:23:58;;;;;;;45.60;21.85;;;;;;;-1.14;99.96;97842.34;4501232;31;20167;-74
2021/12/24 06:26:25;;;;;;;47.78;21.27;;;;;;;-1.18;100.00;97835.72;4501269;31;20080;-74
2021/12/24 06:28:52;;;;;;;47.15;20.08;;;;;;;-1.23;100.00;97823.13;4501261;31;20100;-74
2021/12/24 06:31:20;;;;;;;45.63;21.37;;;;;;;-1.19;99.90;97837.47;4501448;31;20166;-74
2021/12/24 06:33:47;;;;;;;49.67;21.17;;;;;;;-1.17;100.00;97821.97;4500934;31;20087;-74
2021/12/24 06:36:15;;;;;;;45.85;21.60;;;;;;;-1.18;99.65;97821.16;4501317;31;20100;-74
2021/12/24 06:38:42;;;;;;;43.45;21.23;;;;;;;-1.10;99.58;97816.38;4501118;31;20510;-74
2021/12/24 06:41:09;;;;;;;50.63;21.37;;;;;;;-1.02;99.28;97833.94;4500756;31;20084;-74
2021/12/24 06:43:37;;;;;;;48.38;20.33;;;;;;;-0.99;98.69;97815.78;4501175;31;20096;-74
2021/12/24 06:46:11;;;;;;;43.58;20.17;;;;;;;-1.01;99.22;97817.59;4500984;31;20118;-74
2021/12/24 06:48:38;;;;;;;45.10;20.42;;;;;;;-0.93;98.89;97804.31;4501302;31;20106;-74
2021/12/24 06:51:05;;;;;;;47.60;21.10;;;;;;;-0.85;98.51;97812.38;4501056;31;20096;-74
2021/12/24 06:53:33;;;;;;;47.65;21.55;;;;;;;-0.84;97.79;97818.38;4501084;31;20159;-74
2021/12/24 06:56:00;;;;;;;48.80;21.55;;;;;;;-0.83;97.93;97815.72;4501274;31;20568;-74
2021/12/24 06:58:29;;;;;;;47.75;20.92;;;;;;;-0.81;98.10;97829.31;4501107;31;20096;-74
2021/12/24 07:00:56;;;;;;;56.35;22.52;;;;;;;-0.69;97.78;97827.78;4491061;31;20096;-74
2021/12/24 07:03:23;;;;;;;52.17;21.80;;;;;;;-0.75;98.28;97834.09;4485002;31;20383;-74
2021/12/24 07:05:51;;;;;;;51.45;22.50;;;;;;;-0.66;97.54;97835.31;4485228;31;20420;-74
2021/12/24 07:08:18;;;;;;;46.42;21.33;;;;;;;-0.55;97.15;97832.09;4484978;31;20100;-74
2021/12/24 07:10:45;;;;;;;50.20;20.80;;;;;;;-0.61;96.91;97823.00;4483884;32;20555;-74
2021/12/24 07:13:13;;;;;;;49.00;22.35;;;;;;;-0.66;96.40;97839.62;4485033;31;20183;-74
2021/12/24 07:15:41;;;;;;;53.78;22.70;;;;;;;-0.68;96.49;97826.00;4485101;31;20115;-74
2021/12/24 07:18:08;;;;;;;52.65;24.33;;;;;;;-0.69;97.19;97832.91;4484993;31;20450;-74
2021/12/24 07:20:35;;;;;;;54.13;23.12;;;;;;;-0.66;96.33;97816.47;4485090;31;20480;-74
2021/12/24 07:23:04;;;;;;;51.58;23.38;;;;;;;-0.71;96.81;97829.63;4484988;31;20080;-74
2021/12/24 07:25:31;;;;;;;55.75;21.17;;;;;;;-0.60;96.77;97837.50;4484982;31;20088;-74
2021/12/24 07:28:00;;;;;;;47.25;20.70;;;;;;;-0.62;96.62;97829.06;4485105;31;20100;-74
2021/12/24 07:30:28;;;;;;;49.22;21.17;;;;;;;-0.60;96.77;97831.56;4484905;31;20096;-74
2021/12/24 07:32:55;;;;;;;44.95;18.90;;;;;;;-0.58;96.93;97816.84;4484978;31;20092;-74
2021/12/24 07:35:23;;;;;;;45.22;20.50;;;;;;;-0.49;96.83;97829.16;4485003;31;20119;-74
2021/12/24 07:37:50;;;;;;;48.13;19.55;;;;;;;-0.45;96.33;97838.34;4484824;31;20132;-74
2021/12/24 07:40:18;;;;;;;49.13;19.70;;;;;;;-0.41;96.60;97854.44;4484900;31;20622;-74
2021/12/24 07:42:47;;;;;;;50.75;21.65;;;;;;;-0.39;96.95;97855.19;4484815;32;20144;-74
2021/12/24 07:45:16;;;;;;;50.50;20.23;;;;;;;-0.37;96.61;97853.34;4484732;31;20126;-74
2021/12/24 07:47:44;;;;;;;48.87;20.58;;;;;;;-0.30;96.44;97839.19;4484690;31;20394;-74
2021/12/24 07:51:57;;;;;;;40.92;20.00;;;;;;;-0.36;96.98;97842.13;4484821;31;20485;-74
2021/12/24 07:53:08;;;;;;;43.33;19.55;;;;;;;-0.28;96.87;97821.09;4482655;32;20092;-74
2021/12/24 07:55:36;;;;;;;42.95;19.48;;;;;;;-0.21;96.46;97820.63;4484583;31;20116;-74
2021/12/24 07:58:05;;;;;;;40.25;17.95;;;;;;;-0.05;95.85;97805.03;4484728;31;20150;-74
2021/12/24 08:00:33;;;;;;;43.87;18.48;;;;;;;0.02;95.62;97802.94;4492061;31;20196;-74
2021/12/24 08:03:02;;;;;;;42.90;19.23;;;;;;;0.20;95.06;97800.13;4500442;31;20457;-74
2021/12/24 08:05:35;;;;;;;37.95;18.35;;;;;;;0.29;94.48;97799.56;4500364;31;20080;-74
2021/12/24 08:08:03;;;;;;;44.53;19.40;;;;;;;0.51;93.58;97799.03;4500405;31;20110;-74
2021/12/24 08:10:31;;;;;;;45.58;19.50;;;;;;;0.59;93.19;97814.00;4500580;31;20096;-74
2021/12/24 08:12:58;;;;;;;46.03;19.30;;;;;;;0.69;92.67;97797.00;4500224;31;20103;-74
2021/12/24 08:15:25;;;;;;;46.40;19.48;;;;;;;0.79;92.41;97802.38;4500329;31;20144;-74
2021/12/24 08:17:52;;;;;;;41.95;17.92;;;;;;;0.89;91.74;97803.44;4500152;31;20556;-74
2021/12/24 08:20:24;;;;;;;38.50;17.25;;;;;;;0.99;91.80;97793.38;4500636;31;20130;-74
2021/12/24 08:22:53;;;;;;;38.40;17.70;;;;;;;1.00;92.10;97806.16;4500221;31;20092;-74
2021/12/24 08:25:20;;;;;;;42.05;17.90;;;;;;;1.02;92.19;97811.22;4500168;31;20096;-74
2021/12/24 08:27:48;;;;;;;39.05;17.12;;;;;;;1.21;91.40;97792.75;4500222;31;20134;-74
2021/12/24 08:30:15;;;;;;;34.30;17.02;;;;;;;1.31;91.76;97780.06;4500009;31;20445;-74
2021/12/24 08:32:43;;;;;;;37.92;17.87;;;;;;;1.49;91.41;97778.00;4499863;31;20096;-74
2021/12/24 08:35:12;;;;;;;37.28;16.92;;;;;;;1.67;90.44;97786.25;4500085;31;20454;-74
2021/12/24 08:37:40;;;;;;;34.08;16.35;;;;;;;1.61;90.87;97786.69;4500052;31;20453;-74
2021/12/24 08:40:09;;;;;;;34.80;16.65;;;;;;;1.69;90.55;97789.53;4499969;31;20561;-74
2021/12/24 08:42:36;;;;;;;35.45;16.37;;;;;;;1.79;90.89;97793.16;4499774;31;20083;-74
2021/12/24 08:45:04;;;;;;;29.37;14.87;;;;;;;2.04;89.43;97791.44;4500000;31;20153;-74
2021/12/24 08:47:32;;;;;;;32.70;15.07;;;;;;;2.23;89.08;97759.97;4499826;31;20089;-74
2021/12/24 08:49:59;;;;;;;31.67;15.10;;;;;;;2.44;88.62;97773.91;4499720;31;20471;-74
2021/12/24 08:52:26;;;;;;;30.77;15.02;;;;;;;2.51;87.57;97776.88;4500185;31;20096;-74
2021/12/24 08:54:53;;;;;;;32.33;14.23;;;;;;;2.56;87.77;97782.56;4499678;31;20088;-74
2021/12/24 08:57:20;;;;;;;34.20;15.18;;;;;;;2.64;86.38;97790.56;4499909;31;20096;-74
2021/12/24 08:59:48;;;;;;;37.25;16.95;;;;;;;2.61;86.00;97785.63;4497101;31;20100;-74
2021/12/24 09:02:16;;;;;;;34.97;16.52;;;;;;;2.52;86.86;97782.87;4483895;32;20156;-74
2021/12/24 09:04:44;;;;;;;36.17;16.83;;;;;;;2.52;87.65;97781.13;4485675;31;20097;-74
2021/12/24 09:07:11;;;;;;;38.47;16.37;;;;;;;2.67;86.93;97769.66;4485991;31;20116;-74
2021/12/24 09:09:38;;;;;;;41.78;17.48;;;;;;;2.62;87.44;97778.69;4484685;32;20126;-74
2021/12/24 09:12:06;;;;;;;39.45;17.92;;;;;;;2.66;86.76;97764.59;4485747;31;20106;-74
2021/12/24 09:14:34;;;;;;;39.47;16.75;;;;;;;2.65;86.80;97773.31;4485966;31;20093;-75
2021/12/24 09:17:02;;;;;;;36.70;16.12;;;;;;;2.74;86.55;97776.97;4485962;31;20115;-74
2021/12/24 09:19:31;;;;;;;41.40;18.15;;;;;;;2.74;86.94;97772.62;4486013;31;20119;-74
2021/12/24 09:21:59;;;;;;;37.05;17.42;;;;;;;2.83;87.43;97778.88;4486056;31;20111;-74
2021/12/24 09:24:29;;;;;;;36.08;16.55;;;;;;;2.73;87.99;97777.94;4485944;31;20442;-74
2021/12/24 09:26:57;;;;;;;35.42;16.40;;;;;;;2.80;87.35;97776.50;4485815;31;20115;-74
2021/12/24 09:29:26;;;;;;;34.92;17.10;;;;;;;2.80;88.56;97773.94;4485953;32;20142;-74
2021/12/24 09:31:54;;;;;;;34.75;17.10;;;;;;;2.88;88.22;97766.44;4485791;31;20084;-74
2021/12/24 09:34:21;;;;;;;39.17;17.92;;;;;;;3.11;88.03;97758.72;4485918;31;20441;-74
2021/12/24 09:36:49;;;;;;;33.72;17.12;;;;;;;3.22;87.99;97738.03;4485603;31;20096;-74
2021/12/24 09:39:17;;;;;;;37.78;17.48;;;;;;;3.28;88.06;97750.50;4485695;32;20100;-74
2021/12/24 09:41:44;;;;;;;33.05;17.00;;;;;;;3.40;87.88;97735.00;4485763;31;20096;-74
2021/12/24 09:44:13;;;;;;;35.03;17.35;;;;;;;3.36;88.37;97739.56;4485838;31;20093;-74
2021/12/24 09:46:42;;;;;;;30.62;15.85;;;;;;;3.53;87.97;97738.28;4485707;31;20544;-74
2021/12/24 09:49:12;;;;;;;29.48;14.65;;;;;;;3.64;87.20;97725.31;4485580;31;20100;-74
2021/12/24 09:51:44;;;;;;;33.10;16.40;;;;;;;3.79;86.16;97712.13;4485605;31;20092;-74
2021/12/24 09:54:14;;;;;;;29.45;14.10;;;;;;;3.87;85.86;97718.34;4485854;31;20077;-75
2021/12/24 09:56:42;;;;;;;27.30;14.98;;;;;;;3.97;85.04;97717.62;4484308;32;20097;-74
2021/12/24 09:59:09;;;;;;;29.92;14.65;;;;;;;4.01;85.37;97708.66;4485698;31;20115;-74
2021/12/24 10:01:42;;;;;;;30.83;15.18;;;;;;;4.18;85.32;97705.56;4500319;31;20130;-74
2021/12/24 10:04:15;;;;;;;26.42;13.13;;;;;;;4.28;84.82;97708.22;4501233;31;20425;-75
2021/12/24 10:07:05;;;;;;;25.40;13.18;;;;;;;4.44;84.77;97702.62;4501680;31;20108;-74
2021/12/24 10:09:34;;;;;;;26.42;12.73;;;;;;;4.73;83.62;97696.81;4501772;31;20119;-74
2021/12/24 10:12:08;;;;;;;24.00;12.95;;;;;;;4.79;82.34;97684.16;4501105;31;20253;-74
2021/12/24 10:14:39;;;;;;;27.10;12.43;;;;;;;5.01;82.71;97684.13;4500794;31;20457;-75
2021/12/24 10:17:16;;;;;;;22.98;11.80;;;;;;;5.01;82.27;97679.78;4501468;31;20084;-75
2021/12/24 10:19:45;;;;;;;24.05;12.20;;;;;;;5.10;81.51;97686.78;4501550;31;20096;-75
2021/12/24 10:22:12;;;;;;;25.42;12.43;;;;;;;5.07;81.79;97681.00;4501299;31;20476;-75
2021/12/24 10:24:40;;;;;;;23.12;11.35;;;;;;;5.10;81.56;97683.34;4501226;31;20123;-75
2021/12/24 10:27:11;;;;;;;22.35;11.43;;;;;;;5.30;81.68;97682.50;4501182;31;20092;-75
2021/12/24 10:29:39;;;;;;;23.02;11.30;;;;;;;5.56;80.93;97684.63;4501478;31;20087;-75
2021/12/24 10:32:15;;;;;;;22.13;11.95;;;;;;;5.76;80.28;97680.31;4501022;31;20104;-75
2021/12/24 10:34:44;;;;;;;21.20;11.30;;;;;;;5.95;77.99;97684.72;4501212;31;20118;-75
2021/12/24 10:37:25;;;;;;;23.42;11.52;;;;;;;6.11;77.28;97680.81;4501064;31;20119;-75
2021/12/24 10:39:56;;;;;;;24.60;12.18;;;;;;;6.41;75.88;97679.84;4501366;31;20079;-75
2021/12/24 10:42:28;;;;;;;22.58;11.80;;;;;;;6.55;75.99;97676.81;4501062;31;20535;-75
2021/12/24 10:44:57;;;;;;;21.45;11.60;;;;;;;6.60;74.66;97668.63;4501260;31;20084;-75
2021/12/24 10:47:29;;;;;;;22.95;10.48;;;;;;;6.74;74.44;97672.56;4501174;31;20477;-75
2021/12/24 10:55:45;;;;;;;17.58;9.30;;;;;;;6.96;72.60;97671.41;4500917;31;20092;-75
2021/12/24 10:58:15;;;;;;;17.15;8.73;;;;;;;6.98;71.95;97664.28;4501171;31;20076;-75
2021/12/24 11:01:07;;;;;;;16.23;9.55;;;;;;;7.02;71.34;97660.41;4492345;31;20119;-75
2021/12/24 11:03:35;;;;;;;17.25;8.35;;;;;;;6.93;71.75;97656.91;4484678;31;20449;-75
2021/12/24 11:06:06;;;;;;;16.92;9.07;;;;;;;6.99;71.06;97658.09;4485200;31;20100;-75
2021/12/24 11:08:34;;;;;;;17.55;9.52;;;;;;;7.04;71.70;97655.91;4485563;31;20080;-75
2021/12/24 11:11:04;;;;;;;16.35;9.75;;;;;;;7.13;71.13;97664.66;4485278;31;20116;-75
2021/12/24 11:13:40;;;;;;;18.08;8.68;;;;;;;7.13;70.50;97667.25;4484985;31;20140;-75
2021/12/24 11:16:15;;;;;;;16.60;9.13;;;;;;;7.05;70.75;97667.13;4485516;32;20076;-75
2021/12/24 11:18:46;;;;;;;18.37;8.95;;;;;;;7.03;71.74;97662.06;4485219;31;20084;-75
2021/12/24 11:21:21;;;;;;;18.48;9.05;;;;;;;7.00;71.66;97662.34;4485309;31;20158;-75
2021/12/24 11:23:49;;;;;;;17.55;7.72;;;;;;;7.11;71.68;97661.34;4485173;31;20087;-75
2021/12/24 11:26:28;;;;;;;17.35;8.40;;;;;;;7.08;71.27;97669.44;4485049;32;20115;-75
2021/12/24 11:28:56;;;;;;;20.08;9.18;;;;;;;7.05;71.75;97673.16;4485071;31;20446;-75
2021/12/24 11:31:25;;;;;;;17.08;8.88;;;;;;;7.08;71.43;97672.06;4485017;31;20374;-75
2021/12/24 11:33:53;;;;;;;17.05;8.45;;;;;;;7.14;71.64;97666.28;4484758;31;20122;-75
2021/12/24 11:36:22;;;;;;;18.95;8.15;;;;;;;7.03;71.65;97671.66;4483992;32;20076;-75
2021/12/24 11:38:51;;;;;;;19.80;8.75;;;;;;;7.07;72.16;97657.38;4484972;32;20131;-75
2021/12/24 11:41:21;;;;;;;15.98;8.05;;;;;;;7.13;71.61;97649.03;4485095;31;20096;-75
2021/12/24 11:43:51;;;;;;;19.33;8.40;;;;;;;7.27;70.77;97648.53;4484858;31;20119;-75
2021/12/24 11:46:20;;;;;;;16.10;7.45;;;;;;;7.27;70.95;97643.34;4484923;31;20118;-75
2021/12/24 11:48:49;;;;;;;13.75;8.00;;;;;;;7.25;70.85;97640.06;4484948;32;20104;-75
2021/12/24 11:51:20;;;;;;;18.08;8.45;;;;;;;7.26;71.07;97646.91;4484924;31;20088;-75
2021/12/24 11:53:49;;;;;;;13.80;7.10;;;;;;;7.22;71.12;97644.72;4485111;31;20118;-75
2021/12/24 11:56:21;;;;;;;14.52;8.13;;;;;;;7.31;70.90;97645.66;4483984;32;20468;-75
2021/12/24 11:58:54;;;;;;;14.45;7.60;;;;;;;7.33;70.44;97646.31;4485010;31;20097;-75
2021/12/24 12:01:24;;;;;;;11.50;6.75;;;;;;;7.53;70.44;97632.22;4497589;31;20453;-75
2021/12/24 12:03:57;;;;;;;14.68;7.95;;;;;;;7.64;70.21;97626.84;4500465;31;20075;-75
2021/12/24 12:06:24;;;;;;;17.23;7.68;;;;;;;7.69;70.49;97631.59;4500721;31;20071;-75
2021/12/24 12:08:53;;;;;;;17.35;7.70;;;;;;;7.74;70.28;97628.56;4500321;31;20561;-75
2021/12/24 12:11:21;;;;;;;16.62;8.07;;;;;;;7.72;70.64;97626.09;4500487;31;20480;-75
2021/12/24 12:14:01;;;;;;;16.27;8.15;;;;;;;7.68;70.86;97634.34;4500289;31;20532;-75
2021/12/24 12:16:49;;;;;;;16.90;7.40;;;;;;;7.51;71.72;97638.53;4500561;31;20132;-75
2021/12/24 12:19:29;;;;;;;13.82;7.43;;;;;;;7.41;72.09;97631.59;4500629;31;20073;-75
2021/12/24 12:25:09;;;;;;;17.80;9.18;;;;;;;7.32;72.90;97639.47;4500384;31;20084;-75
2021/12/24 12:27:38;;;;;;;19.23;8.50;;;;;;;7.35;73.06;97639.19;4500473;31;20138;-75
2021/12/24 12:30:21;;;;;;;15.27;8.25;;;;;;;7.37;73.03;97645.87;4500482;31;20088;-75
2021/12/24 12:32:50;;;;;;;14.87;7.60;;;;;;;7.45;73.37;97650.41;4499958;31;20136;-75
2021/12/24 12:35:18;;;;;;;19.02;8.00;;;;;;;7.38;73.62;97644.13;4500377;31;20095;-75
2021/12/24 12:37:52;;;;;;;14.82;7.75;;;;;;;7.33;74.48;97644.56;4500319;31;20389;-75
2021/12/24 12:40:19;;;;;;;;;;;;;;;7.31;74.94;97638.66;4502471;31;20092;-75
2021/12/24 12:42:50;;;;;;;15.57;8.25;;;;;;;7.20;76.37;97639.66;4502080;31;19992;-75
2021/12/24 12:45:20;;;;;;;18.75;8.13;;;;;;;7.01;78.05;97637.97;4502197;31;20177;-75
2021/12/24 12:47:59;;;;;;;16.50;8.40;;;;;;;6.95;79.11;97633.31;4502323;31;20103;-75
2021/12/24 12:50:28;;;;;;;17.60;8.02;;;;;;;6.92;81.71;97634.41;4499880;31;20126;-75
2021/12/24 12:53:30;;;;;;;14.65;8.02;;;;;;;7.06;80.32;97632.31;4500583;31;20088;-75
2021/12/24 12:56:15;;;;;;;16.42;8.00;;;;;;;7.08;81.09;97639.00;4502007;31;20199;-75
2021/12/24 12:58:45;;;;;;;14.00;7.25;;;;;;;7.21;82.63;97645.72;4502009;31;20141;-75
2021/12/24 13:01:16;;;;;;;14.23;7.85;;;;;;;7.07;83.58;97645.19;4490242;31;20096;-75
2021/12/24 13:03:55;;;;;;;14.52;6.97;;;;;;;7.14;84.31;97636.81;4485813;31;20081;-75
2021/12/24 13:06:36;;;;;;;16.75;7.80;;;;;;;7.16;83.58;97630.50;4486228;31;20077;-75
2021/12/24 13:09:32;;;;;;;18.35;8.38;;;;;;;7.16;85.20;97634.88;4486118;31;20487;-75
2021/12/24 13:12:01;;;;;;;17.33;8.20;;;;;;;7.09;86.02;97635.44;4485906;31;20100;-75
2021/12/24 13:14:30;;;;;;;19.15;9.15;;;;;;;7.12;86.70;97644.78;4485967;31;20161;-75
2021/12/24 13:25:14;;;;;;;22.08;10.75;;;;;;;6.99;89.05;97657.28;4486318;31;20461;-75